Terminal Aerodrome Forecast
Issued by NWS Corpus Christi, TX

Home | Current Version | Previous Version | Text Only | Print | Product List | Glossary On
Versions: 1 2 3 4 5 6 7 8 9 10 11 12 13 14
000
FTUS44 KCRP 170527
TAFCRP
TAF
KCRP 170527Z 1706/1806 34008KT P6SM OVC012
     FM170800 34004KT 2SM BR OVC004
     FM171530 03004KT 5SM BR OVC008
     FM171800 09008KT P6SM OVC015
     FM180300 12005KT 5SM BR OVC008=

USA.gov is the U.S. government's official web portal to all federal, state and local government web resources and services.